Time;durP1;ratioP1;P1;durP2;ratioP2;P2;SDS_P1;SDS_P2;PMS_P1;PMS_P2;Temp;Humidity;BMP_temperature;BMP_pressure;BME280_temperature;BME280_humidity;BME280_pressure;Samples;Min_cycle;Max_cycle;Signal;HPM_P1;HPM_P2
2024/01/16 00:01:20;;;;;;;3.13;2.60;;;-0.80;99.90;;;;;;5129824;27;20429;-73
2024/01/16 00:03:46;;;;;;;5.07;2.57;;;-0.80;99.90;;;;;;5129790;28;20181;-73
2024/01/16 00:06:12;;;;;;;5.60;3.00;;;-0.70;99.90;;;;;;5129707;28;20338;-73
2024/01/16 00:08:37;;;;;;;3.27;2.47;;;-0.80;99.90;;;;;;5129467;28;20188;-73
2024/01/16 00:11:03;;;;;;;3.13;2.63;;;-0.70;99.90;;;;;;5111552;28;20447;-73
2024/01/16 00:13:29;;;;;;;3.17;2.83;;;-0.70;99.90;;;;;;5111610;28;20225;-73
2024/01/16 00:15:56;;;;;;;2.50;2.30;;;-0.70;99.90;;;;;;5111705;28;20184;-73
2024/01/16 00:18:22;;;;;;;3.65;3.00;;;-0.80;99.90;;;;;;5094792;28;20200;-73
2024/01/16 00:20:48;;;;;;;3.90;2.53;;;-0.80;99.90;;;;;;5129927;28;20200;-72
2024/01/16 00:23:13;;;;;;;3.90;2.63;;;-0.80;99.90;;;;;;5132110;27;20186;-74
2024/01/16 00:25:39;;;;;;;3.37;2.33;;;-0.80;99.90;;;;;;5133835;27;20215;-73
2024/01/16 00:28:05;;;;;;;8.30;2.70;;;-0.80;99.90;;;;;;5098233;27;20201;-73
2024/01/16 00:30:31;;;;;;;3.75;2.50;;;-0.90;99.90;;;;;;5133644;27;20241;-73
2024/01/16 00:32:56;;;;;;;3.60;2.63;;;-0.90;99.90;;;;;;5114945;27;20216;-73
2024/01/16 00:35:22;;;;;;;3.90;2.40;;;-0.90;99.90;;;;;;5133300;27;20188;-73
2024/01/16 00:37:47;;;;;;;4.10;3.00;;;-0.90;99.90;;;;;;5133064;27;20349;-72
2024/01/16 00:40:13;;;;;;;3.43;2.57;;;-0.80;99.90;;;;;;5114877;27;20181;-72
2024/01/16 00:42:38;;;;;;;2.10;1.60;;;-0.80;99.90;;;;;;5114560;27;20623;-72
2024/01/16 00:45:04;;;;;;;6.70;2.33;;;-0.90;99.90;;;;;;5114655;27;20216;-72
2024/01/16 00:47:30;;;;;;;4.07;2.67;;;-0.90;99.90;;;;;;5133115;27;20216;-72
2024/01/16 00:49:56;;;;;;;4.30;2.80;;;-0.90;99.90;;;;;;5133343;27;20426;-73
2024/01/16 00:52:21;;;;;;;5.43;3.20;;;-0.90;99.90;;;;;;5114641;27;20181;-72
2024/01/16 00:54:47;;;;;;;3.67;2.80;;;-0.90;99.90;;;;;;5132900;27;20949;-72
2024/01/16 00:57:15;;;;;;;5.07;2.72;;;-0.90;99.90;;;;;;5132907;27;20175;-72
2024/01/16 00:59:40;;;;;;;5.00;3.50;;;-0.90;99.90;;;;;;5132739;27;20284;-73
2024/01/16 01:02:06;;;;;;;3.40;2.77;;;-0.90;99.90;;;;;;5114264;27;21093;-72
2024/01/16 01:04:33;;;;;;;4.03;2.70;;;-0.90;99.90;;;;;;5096914;27;20209;-73
2024/01/16 01:06:58;;;;;;;3.58;2.33;;;-0.90;99.90;;;;;;5097096;27;20319;-72
2024/01/16 01:09:24;;;;;;;2.73;2.30;;;-0.80;99.90;;;;;;5132533;27;20287;-73
2024/01/16 01:11:50;;;;;;;2.10;1.87;;;-0.80;99.90;;;;;;5132413;27;20185;-73
2024/01/16 01:14:15;;;;;;;3.60;2.63;;;-0.90;99.90;;;;;;5114243;27;20200;-73
2024/01/16 01:16:41;;;;;;;4.70;2.40;;;-0.90;99.90;;;;;;5080204;27;20181;-72
2024/01/16 01:19:06;;;;;;;5.13;2.53;;;-1.00;99.90;;;;;;5113836;27;20201;-73
2024/01/16 01:21:32;;;;;;;6.77;2.60;;;-1.00;99.90;;;;;;5113574;27;20181;-72
2024/01/16 01:23:58;;;;;;;7.00;2.73;;;-1.10;99.90;;;;;;5113542;27;20189;-72
2024/01/16 01:26:23;;;;;;;2.53;2.33;;;-1.10;99.90;;;;;;5113741;27;20212;-73
2024/01/16 01:28:49;;;;;;;4.27;2.63;;;-1.10;99.90;;;;;;5113896;27;20197;-72
2024/01/16 01:31:14;;;;;;;2.90;2.60;;;-1.10;99.90;;;;;;5113943;27;20730;-73
2024/01/16 01:33:40;;;;;;;3.90;2.33;;;-1.10;99.90;;;;;;5096557;27;20193;-72
2024/01/16 01:36:06;;;;;;;2.60;2.30;;;-1.10;99.90;;;;;;5132104;27;20207;-72
2024/01/16 01:38:31;;;;;;;4.67;2.43;;;-1.10;99.90;;;;;;5132074;27;20204;-72
2024/01/16 01:40:57;;;;;;;3.57;2.33;;;-1.10;99.90;;;;;;5113575;27;20759;-73
2024/01/16 01:43:24;;;;;;;3.90;2.70;;;-1.10;99.90;;;;;;5132315;27;20679;-73
2024/01/16 01:46:28;;;;;;;7.00;2.50;;;-1.10;99.90;;;;;;5132004;27;20204;-72
2024/01/16 01:48:54;;;;;;;3.70;2.55;;;-1.10;99.90;;;;;;5131715;27;20197;-72
2024/01/16 01:51:19;;;;;;;6.10;2.40;;;-1.10;99.90;;;;;;5113550;27;20841;-73
2024/01/16 01:53:48;;;;;;;4.67;2.40;;;-1.10;99.90;;;;;;5131874;27;20407;-72
2024/01/16 01:56:17;;;;;;;3.90;2.40;;;-1.10;99.90;;;;;;5113678;27;20178;-73
2024/01/16 01:58:53;;;;;;;5.32;3.35;;;-1.00;99.90;;;;;;5112951;27;20265;-73
2024/01/16 02:01:20;;;;;;;5.47;2.53;;;-1.00;99.90;;;;;;5131932;27;20177;-73
2024/01/16 02:03:47;;;;;;;8.40;2.72;;;-1.00;99.90;;;;;;5131488;27;20188;-73
2024/01/16 02:06:13;;;;;;;2.53;2.28;;;-1.10;99.90;;;;;;5131784;27;20205;-73
2024/01/16 02:08:42;;;;;;;3.97;2.55;;;-1.00;99.90;;;;;;5113277;27;20197;-73
2024/01/16 02:11:09;;;;;;;4.22;2.80;;;-1.10;99.90;;;;;;5131293;27;20181;-73
2024/01/16 02:13:35;;;;;;;3.42;2.40;;;-1.00;99.90;;;;;;5131636;27;20180;-73
2024/01/16 02:16:01;;;;;;;5.70;2.43;;;-1.00;99.90;;;;;;5112842;27;20188;-73
2024/01/16 02:18:27;;;;;;;2.70;2.40;;;-1.10;99.90;;;;;;5113005;27;20442;-73
2024/01/16 02:20:55;;;;;;;3.10;2.77;;;-1.10;99.90;;;;;;5131456;27;20180;-73
2024/01/16 02:23:26;;;;;;;4.20;2.50;;;-1.10;99.90;;;;;;5131330;27;20537;-73
2024/01/16 02:25:53;;;;;;;2.60;2.33;;;-1.10;99.90;;;;;;5131266;27;20219;-73
2024/01/16 02:28:18;;;;;;;4.18;2.13;;;-1.00;99.90;;;;;;5131422;27;20208;-73
2024/01/16 02:30:44;;;;;;;4.07;2.87;;;-1.00;99.90;;;;;;5131359;27;20177;-73
2024/01/16 02:33:09;;;;;;;5.80;2.63;;;-1.00;99.90;;;;;;5131258;27;20177;-73
2024/01/16 02:35:35;;;;;;;3.83;2.20;;;-1.10;99.90;;;;;;5131212;27;20683;-73
2024/01/16 02:38:00;;;;;;;9.20;2.30;;;-1.10;99.90;;;;;;5112324;27;20241;-74
2024/01/16 02:40:26;;;;;;;4.63;2.53;;;-1.10;99.90;;;;;;5112534;27;20553;-73
2024/01/16 02:42:52;;;;;;;3.58;2.42;;;-1.00;99.90;;;;;;5113411;27;20261;-73
2024/01/16 02:45:18;;;;;;;3.93;2.90;;;-1.00;99.90;;;;;;5130691;27;20974;-74
2024/01/16 02:47:43;;;;;;;5.33;2.43;;;-1.00;99.90;;;;;;5130848;27;20233;-73
2024/01/16 02:50:12;;;;;;;2.37;1.90;;;-0.80;99.90;;;;;;5112088;27;20555;-74
2024/01/16 02:52:37;;;;;;;4.88;2.92;;;-1.00;99.90;;;;;;5130742;27;20173;-73
2024/01/16 02:55:04;;;;;;;3.97;2.13;;;-0.90;99.90;;;;;;5130890;27;20175;-74
2024/01/16 02:57:30;;;;;;;9.38;2.80;;;-1.00;99.90;;;;;;5112479;27;20210;-74
2024/01/16 02:59:56;;;;;;;3.53;2.63;;;-1.00;99.90;;;;;;5112428;27;20181;-73
2024/01/16 03:02:23;;;;;;;3.17;2.67;;;-1.00;99.90;;;;;;5112344;27;20797;-73
2024/01/16 03:04:49;;;;;;;3.47;2.20;;;-0.90;99.90;;;;;;5130614;27;20200;-74
2024/01/16 03:07:14;;;;;;;5.70;2.50;;;-0.90;99.90;;;;;;5130760;27;20713;-74
2024/01/16 03:09:40;;;;;;;5.33;2.57;;;-0.80;99.90;;;;;;5131033;27;20277;-74
2024/01/16 03:12:06;;;;;;;3.40;2.47;;;-0.80;99.90;;;;;;5095536;27;20181;-74
2024/01/16 03:14:34;;;;;;;4.10;2.40;;;-0.80;99.90;;;;;;5130771;27;20363;-73
2024/01/16 03:17:02;;;;;;;4.22;2.70;;;-0.80;99.90;;;;;;5131266;27;20416;-73
2024/01/16 03:19:27;;;;;;;4.80;2.92;;;-0.80;99.90;;;;;;5111882;27;20295;-73
2024/01/16 03:21:53;;;;;;;8.13;2.93;;;-0.90;99.90;;;;;;5111825;27;20272;-74
2024/01/16 03:24:19;;;;;;;5.10;2.70;;;-0.90;99.90;;;;;;5111562;27;20660;-74
2024/01/16 03:26:45;;;;;;;3.15;2.60;;;-1.00;99.90;;;;;;5130145;27;20438;-73
2024/01/16 03:29:11;;;;;;;3.07;2.43;;;-1.00;99.90;;;;;;5130093;27;20255;-73
2024/01/16 03:31:37;;;;;;;3.40;2.40;;;-1.10;99.90;;;;;;5130042;27;20177;-73
2024/01/16 03:34:03;;;;;;;8.03;2.40;;;-1.00;99.90;;;;;;5111511;27;20253;-74
2024/01/16 03:36:28;;;;;;;2.67;2.47;;;-1.10;99.90;;;;;;5111121;27;20435;-73
2024/01/16 03:38:54;;;;;;;3.40;2.70;;;-1.10;99.90;;;;;;5111296;27;20254;-73
2024/01/16 03:41:19;;;;;;;3.00;2.50;;;-1.10;99.90;;;;;;5129743;27;20710;-73
2024/01/16 03:43:45;;;;;;;4.30;2.20;;;-1.10;99.90;;;;;;5111123;28;20862;-73
2024/01/16 03:46:11;;;;;;;4.07;2.50;;;-1.20;99.90;;;;;;5129642;27;20209;-73
2024/01/16 03:48:37;;;;;;;4.97;3.10;;;-1.20;99.90;;;;;;5129520;27;20664;-73
2024/01/16 03:51:02;;;;;;;3.40;2.80;;;-1.30;99.90;;;;;;5129596;27;20222;-74
2024/01/16 03:53:28;;;;;;;2.37;2.17;;;-1.40;99.90;;;;;;5110853;28;20196;-74
2024/01/16 03:55:54;;;;;;;3.70;2.33;;;-1.40;99.90;;;;;;5111084;28;20207;-74
2024/01/16 03:58:19;;;;;;;4.10;2.20;;;-1.50;99.90;;;;;;5109869;27;20247;-74
2024/01/16 04:00:46;;;;;;;5.40;2.60;;;-1.50;99.90;;;;;;5129535;27;20277;-74
2024/01/16 04:03:13;;;;;;;2.38;2.17;;;-1.60;99.90;;;;;;5129553;27;20188;-74
2024/01/16 04:05:38;;;;;;;4.30;2.35;;;-1.60;99.90;;;;;;5111144;28;20213;-74
2024/01/16 04:08:04;;;;;;;3.03;2.57;;;-1.60;99.90;;;;;;5111005;28;20804;-73
2024/01/16 04:10:30;;;;;;;4.20;2.40;;;-1.70;99.90;;;;;;5111075;28;20181;-74
2024/01/16 04:12:55;;;;;;;3.80;2.00;;;-1.70;99.90;;;;;;5110812;28;20223;-73
2024/01/16 04:15:22;;;;;;;3.77;2.67;;;-1.70;99.90;;;;;;5093502;28;20177;-73
2024/01/16 04:17:48;;;;;;;7.72;2.58;;;-1.80;99.90;;;;;;5128927;28;20288;-73
2024/01/16 04:20:13;;;;;;;4.20;2.55;;;-1.80;99.90;;;;;;5110263;28;20188;-73
2024/01/16 04:22:39;;;;;;;3.10;2.63;;;-1.80;99.90;;;;;;5129192;28;20231;-73
2024/01/16 04:25:05;;;;;;;2.30;2.10;;;-1.80;99.90;;;;;;5129142;28;20213;-73
2024/01/16 04:27:32;;;;;;;3.57;1.87;;;-1.90;99.90;;;;;;5110631;28;20438;-73
2024/01/16 04:29:57;;;;;;;3.20;2.35;;;-1.90;99.90;;;;;;5110197;28;20419;-73
2024/01/16 04:32:23;;;;;;;2.33;1.80;;;-1.90;99.90;;;;;;5129227;28;20192;-73
2024/01/16 04:34:48;;;;;;;2.77;2.20;;;-1.90;99.90;;;;;;5110734;28;20185;-73
2024/01/16 04:37:14;;;;;;;5.77;2.70;;;-2.00;99.90;;;;;;5110592;28;20254;-74
2024/01/16 04:39:39;;;;;;;3.60;1.90;;;-2.00;99.90;;;;;;5110602;28;20663;-74
2024/01/16 04:42:05;;;;;;;3.27;2.47;;;-2.00;99.90;;;;;;5093661;28;20185;-74
2024/01/16 04:44:30;;;;;;;3.23;2.00;;;-2.00;99.90;;;;;;5128941;28;20186;-74
2024/01/16 04:46:56;;;;;;;3.20;2.00;;;-2.00;99.90;;;;;;5128755;28;20182;-73
2024/01/16 04:49:22;;;;;;;2.50;2.30;;;-2.00;99.90;;;;;;5093214;28;20627;-74
2024/01/16 04:51:47;;;;;;;3.93;1.97;;;-2.00;99.90;;;;;;5110396;28;20181;-74
2024/01/16 04:54:13;;;;;;;2.60;1.90;;;-2.00;99.90;;;;;;5093549;28;20196;-73
2024/01/16 04:56:38;;;;;;;4.60;1.83;;;-2.00;99.90;;;;;;5128730;28;20185;-74
2024/01/16 04:59:04;;;;;;;4.13;1.93;;;-2.00;99.90;;;;;;5128811;28;20278;-74
2024/01/16 05:01:30;;;;;;;5.43;2.30;;;-2.00;99.90;;;;;;5128994;28;20547;-74
2024/01/16 05:03:55;;;;;;;2.83;1.77;;;-2.00;99.90;;;;;;5128937;28;20326;-74
2024/01/16 05:06:21;;;;;;;4.93;2.40;;;-2.00;99.90;;;;;;5128562;28;20209;-74
2024/01/16 05:08:47;;;;;;;4.00;2.57;;;-2.00;99.90;;;;;;5110917;27;20724;-74
2024/01/16 05:11:12;;;;;;;3.03;2.10;;;-2.00;99.90;;;;;;5112414;27;20262;-74
2024/01/16 05:13:38;;;;;;;5.63;2.53;;;-2.00;99.90;;;;;;5112353;27;20671;-73
2024/01/16 05:16:04;;;;;;;2.47;2.20;;;-2.00;99.90;;;;;;5112341;27;20197;-73
2024/01/16 05:18:29;;;;;;;2.23;2.03;;;-2.00;99.90;;;;;;5130960;27;20232;-74
2024/01/16 05:20:56;;;;;;;2.07;1.70;;;-2.10;99.90;;;;;;5112191;27;20423;-73
2024/01/16 05:23:24;;;;;;;2.97;1.95;;;-2.00;99.90;;;;;;5112340;27;20185;-73
2024/01/16 05:25:50;;;;;;;3.03;1.85;;;-2.10;99.90;;;;;;5095510;27;20215;-73
2024/01/16 05:28:16;;;;;;;3.20;2.10;;;-2.10;99.90;;;;;;5112133;27;20197;-74
2024/01/16 05:30:42;;;;;;;2.43;1.93;;;-2.10;99.90;;;;;;5130517;27;20222;-74
2024/01/16 05:33:08;;;;;;;3.03;2.73;;;-2.10;99.90;;;;;;5131061;27;21089;-73
2024/01/16 05:35:34;;;;;;;3.20;2.10;;;-2.20;99.90;;;;;;5130620;27;20652;-73
2024/01/16 05:37:59;;;;;;;2.40;2.10;;;-2.20;99.90;;;;;;5111953;27;20269;-73
2024/01/16 05:40:26;;;;;;;3.07;2.20;;;-2.20;99.90;;;;;;5095003;27;20185;-74
2024/01/16 05:42:51;;;;;;;4.40;2.17;;;-2.20;99.90;;;;;;5111633;27;20228;-73
2024/01/16 05:45:17;;;;;;;4.33;1.87;;;-2.20;99.90;;;;;;5111790;27;20240;-73
2024/01/16 05:47:43;;;;;;;4.78;1.83;;;-2.10;99.90;;;;;;5130341;27;20215;-73
2024/01/16 05:50:09;;;;;;;4.70;2.07;;;-2.10;99.90;;;;;;5130470;27;20652;-73
2024/01/16 05:52:35;;;;;;;6.70;2.30;;;-2.10;99.90;;;;;;5130297;27;20410;-73
2024/01/16 05:55:02;;;;;;;2.80;2.30;;;-2.10;99.90;;;;;;5130242;27;20418;-73
2024/01/16 05:57:33;;;;;;;2.90;1.90;;;-2.10;99.90;;;;;;5111336;27;20273;-73
2024/01/16 06:00:03;;;;;;;5.28;2.45;;;-2.20;99.90;;;;;;5130201;27;20197;-73
2024/01/16 06:02:28;;;;;;;2.95;2.40;;;-2.10;99.90;;;;;;5129918;27;20262;-73
2024/01/16 06:04:54;;;;;;;5.00;3.03;;;-2.10;99.90;;;;;;5129809;27;20200;-73
2024/01/16 06:07:20;;;;;;;2.57;2.13;;;-2.20;99.90;;;;;;5111563;27;20176;-73
2024/01/16 06:09:46;;;;;;;4.57;2.40;;;-2.20;99.90;;;;;;5111691;27;20660;-73
2024/01/16 06:12:12;;;;;;;5.43;2.50;;;-2.20;99.90;;;;;;5129971;27;20945;-74
2024/01/16 06:14:38;;;;;;;6.93;2.55;;;-2.20;99.90;;;;;;5111216;27;20265;-74
2024/01/16 06:17:05;;;;;;;2.60;2.05;;;-2.30;99.90;;;;;;5129951;27;20184;-73
2024/01/16 06:19:31;;;;;;;4.47;2.17;;;-2.30;99.90;;;;;;5094076;27;20189;-73
2024/01/16 06:21:58;;;;;;;5.65;3.03;;;-2.30;99.90;;;;;;5110624;27;20191;-74
2024/01/16 06:24:23;;;;;;;8.57;3.03;;;-2.30;99.90;;;;;;5129646;27;20182;-73
2024/01/16 06:26:49;;;;;;;3.00;2.10;;;-2.30;99.90;;;;;;5111302;27;20238;-73
2024/01/16 06:29:14;;;;;;;3.93;2.67;;;-2.20;99.90;;;;;;5129851;27;20203;-74
2024/01/16 06:31:40;;;;;;;2.33;2.13;;;-2.20;99.90;;;;;;5111207;27;20181;-74
2024/01/16 06:34:06;;;;;;;2.47;1.93;;;-2.20;99.90;;;;;;5111185;27;20185;-73
2024/01/16 06:36:31;;;;;;;2.70;2.50;;;-2.20;99.90;;;;;;5129936;27;20204;-74
2024/01/16 06:38:58;;;;;;;4.83;2.70;;;-2.30;99.90;;;;;;5111226;27;20438;-73
2024/01/16 06:41:23;;;;;;;3.35;2.70;;;-2.30;99.90;;;;;;5094473;27;20663;-74
2024/01/16 06:43:49;;;;;;;4.10;2.70;;;-2.20;99.90;;;;;;5077158;27;20192;-74
2024/01/16 06:46:14;;;;;;;8.20;2.37;;;-2.20;99.90;;;;;;5111393;27;20228;-74
2024/01/16 06:48:40;;;;;;;2.93;2.63;;;-2.30;99.90;;;;;;5129519;27;20291;-74
2024/01/16 06:51:07;;;;;;;3.57;3.03;;;-2.30;99.90;;;;;;5110865;27;20193;-74
2024/01/16 06:53:33;;;;;;;3.13;1.98;;;-2.40;99.90;;;;;;5094250;27;20173;-74
2024/01/16 06:55:58;;;;;;;2.23;1.80;;;-2.40;99.90;;;;;;5110837;27;20181;-73
2024/01/16 06:58:24;;;;;;;2.13;1.93;;;-2.30;99.90;;;;;;5110332;27;20242;-73
2024/01/16 07:00:50;;;;;;;2.47;1.80;;;-2.40;99.90;;;;;;5110422;27;20656;-73
2024/01/16 07:03:16;;;;;;;3.70;2.30;;;-2.40;99.90;;;;;;5110390;27;20211;-73
2024/01/16 07:05:43;;;;;;;3.20;2.70;;;-2.40;99.90;;;;;;5093361;27;20209;-73
2024/01/16 07:08:08;;;;;;;3.65;2.45;;;-2.30;99.90;;;;;;5093157;27;20211;-73
2024/01/16 07:10:35;;;;;;;2.13;1.90;;;-2.30;99.90;;;;;;5110139;27;20185;-73
2024/01/16 07:13:01;;;;;;;4.18;2.60;;;-2.30;99.90;;;;;;5128605;27;20188;-73
2024/01/16 07:15:27;;;;;;;2.97;2.40;;;-2.30;99.90;;;;;;5128911;27;20254;-73
2024/01/16 07:17:53;;;;;;;3.53;2.97;;;-2.30;99.90;;;;;;5128832;27;20201;-73
2024/01/16 07:20:19;;;;;;;3.43;2.30;;;-2.40;99.90;;;;;;5128377;27;20427;-74
2024/01/16 07:22:45;;;;;;;3.27;2.23;;;-2.40;99.90;;;;;;5128784;27;20185;-73
2024/01/16 07:25:11;;;;;;;3.80;2.35;;;-2.30;99.90;;;;;;5128322;27;20861;-73
2024/01/16 07:27:37;;;;;;;8.17;3.00;;;-2.30;99.90;;;;;;5128576;27;20201;-73
2024/01/16 07:30:05;;;;;;;6.90;3.87;;;-2.20;99.90;;;;;;5128765;27;20419;-73
2024/01/16 07:32:32;;;;;;;8.52;3.50;;;-2.30;99.90;;;;;;5128070;27;20426;-73
2024/01/16 07:34:57;;;;;;;4.95;1.98;;;-2.30;99.90;;;;;;5128099;27;20177;-73
2024/01/16 07:37:23;;;;;;;4.20;3.07;;;-2.30;99.90;;;;;;5092513;27;20211;-73
2024/01/16 07:39:49;;;;;;;3.53;2.23;;;-2.30;99.90;;;;;;5128242;27;20225;-74
2024/01/16 07:42:14;;;;;;;4.30;2.10;;;-2.30;99.90;;;;;;5109660;27;20184;-74
2024/01/16 07:44:40;;;;;;;2.70;2.13;;;-2.40;99.90;;;;;;5109542;27;20220;-73
2024/01/16 07:47:05;;;;;;;5.20;2.60;;;-2.40;99.90;;;;;;5092644;28;20193;-73
2024/01/16 07:49:31;;;;;;;2.73;2.53;;;-2.40;99.90;;;;;;5128156;27;20908;-73
2024/01/16 07:51:57;;;;;;;3.80;2.17;;;-2.40;99.90;;;;;;5109522;28;20189;-73
2024/01/16 07:54:22;;;;;;;3.40;2.47;;;-2.30;99.90;;;;;;5109585;27;20807;-73
2024/01/16 07:56:48;;;;;;;6.43;2.83;;;-2.30;99.90;;;;;;5127957;27;20177;-73
2024/01/16 07:59:14;;;;;;;8.27;2.70;;;-2.20;99.90;;;;;;5109549;27;20672;-73
2024/01/16 08:01:39;;;;;;;4.57;2.50;;;-2.20;99.90;;;;;;5128185;27;20176;-73
2024/01/16 08:04:05;;;;;;;3.97;3.57;;;-2.30;99.90;;;;;;5128207;27;20411;-73
2024/01/16 08:06:31;;;;;;;83.53;35.67;;;-2.40;99.90;;;;;;5128141;28;20295;-73
2024/01/16 08:08:56;;;;;;;57.33;24.13;;;-2.20;99.90;;;;;;5128369;28;20209;-72
2024/01/16 08:11:22;;;;;;;39.03;18.93;;;-2.10;99.90;;;;;;5109769;28;20180;-72
2024/01/16 08:13:47;;;;;;;6.40;3.70;;;-2.00;99.90;;;;;;5109906;28;20207;-74
2024/01/16 08:16:13;;;;;;;11.93;3.63;;;-2.00;99.90;;;;;;5128580;28;20189;-73
2024/01/16 08:18:39;;;;;;;7.47;4.13;;;-2.00;99.90;;;;;;5128510;28;20247;-74
2024/01/16 08:21:04;;;;;;;4.77;2.67;;;-2.00;99.90;;;;;;5128681;28;20185;-73
2024/01/16 08:23:30;;;;;;;4.63;3.53;;;-2.00;99.90;;;;;;5109968;28;20193;-73
2024/01/16 08:25:55;;;;;;;3.50;2.53;;;-2.00;99.90;;;;;;5128385;28;20257;-73
2024/01/16 08:28:24;;;;;;;7.10;2.87;;;-1.90;99.90;;;;;;5109597;28;20209;-72
2024/01/16 08:30:49;;;;;;;3.65;2.47;;;-1.90;99.90;;;;;;5093326;28;20229;-73
2024/01/16 08:33:15;;;;;;;3.83;2.70;;;-1.80;99.90;;;;;;5128051;28;20181;-73
2024/01/16 08:35:41;;;;;;;5.57;2.77;;;-1.80;99.90;;;;;;5128046;28;20419;-73
2024/01/16 08:38:06;;;;;;;3.40;2.20;;;-1.70;99.90;;;;;;5128051;28;20225;-73
2024/01/16 08:40:32;;;;;;;9.87;3.10;;;-1.50;99.90;;;;;;5109427;28;20185;-73
2024/01/16 08:42:58;;;;;;;6.40;4.20;;;-1.50;99.90;;;;;;5109622;27;20189;-73
2024/01/16 08:45:25;;;;;;;7.90;4.40;;;-1.60;99.90;;;;;;5131914;27;20309;-73
2024/01/16 08:47:52;;;;;;;9.68;4.53;;;-1.30;99.90;;;;;;5113332;27;20256;-72
2024/01/16 08:50:18;;;;;;;3.73;2.70;;;-1.10;99.90;;;;;;5132006;27;20279;-73
2024/01/16 08:52:44;;;;;;;2.60;2.40;;;-1.00;99.90;;;;;;5131710;27;20598;-74
2024/01/16 08:55:09;;;;;;;5.67;2.20;;;-1.10;99.90;;;;;;5131843;27;20415;-74
2024/01/16 08:57:37;;;;;;;4.33;2.50;;;-1.10;99.90;;;;;;5131326;27;20273;-73
2024/01/16 09:00:04;;;;;;;4.47;2.42;;;-0.90;99.90;;;;;;5095975;27;20196;-73
2024/01/16 09:02:30;;;;;;;4.15;2.90;;;-0.80;99.90;;;;;;5112641;27;20327;-73
2024/01/16 09:04:56;;;;;;;4.43;2.50;;;-0.70;99.90;;;;;;5095946;27;20208;-74
2024/01/16 09:07:22;;;;;;;2.50;2.30;;;-0.70;99.90;;;;;;5131206;27;20303;-73
2024/01/16 09:09:48;;;;;;;19.83;4.50;;;-0.70;99.90;;;;;;5112342;27;20673;-73
2024/01/16 09:12:14;;;;;;;45.30;10.27;;;-0.60;99.90;;;;;;5131163;27;20434;-73
2024/01/16 09:14:41;;;;;;;33.92;7.60;;;-0.30;99.90;;;;;;5131103;27;20561;-73
2024/01/16 09:17:06;;;;;;;33.65;6.32;;;0.20;99.90;;;;;;5095951;27;20257;-73
2024/01/16 09:19:32;;;;;;;24.57;5.60;;;0.70;99.90;;;;;;5131285;27;20240;-73
2024/01/16 09:21:58;;;;;;;22.47;5.70;;;0.90;99.90;;;;;;5095274;27;20711;-73
2024/01/16 09:24:23;;;;;;;4.07;2.13;;;0.90;99.90;;;;;;5130822;27;20956;-73
2024/01/16 09:26:49;;;;;;;4.97;3.30;;;0.90;99.90;;;;;;5112637;27;20585;-74
2024/01/16 09:29:14;;;;;;;10.57;3.60;;;1.20;99.90;;;;;;5095024;27;20208;-73
2024/01/16 09:31:41;;;;;;;5.30;3.10;;;1.30;99.90;;;;;;5112051;27;20769;-73
2024/01/16 09:34:06;;;;;;;4.13;2.88;;;1.40;99.90;;;;;;5112124;27;20733;-73
2024/01/16 09:36:35;;;;;;;3.93;2.40;;;1.60;99.90;;;;;;5111963;27;20210;-73
2024/01/16 09:39:02;;;;;;;2.70;2.33;;;1.80;99.90;;;;;;5112337;27;20212;-71
2024/01/16 09:41:28;;;;;;;3.70;2.47;;;2.10;99.90;;;;;;5130550;27;20203;-73
2024/01/16 09:43:54;;;;;;;4.03;2.67;;;2.30;99.90;;;;;;5112158;27;20186;-72
2024/01/16 09:46:24;;;;;;;3.43;2.40;;;2.50;99.90;;;;;;5112126;27;20760;-73
2024/01/16 09:48:53;;;;;;;7.95;3.10;;;3.10;99.90;;;;;;5078501;27;20203;-73
2024/01/16 09:51:19;;;;;;;3.53;2.57;;;3.40;98.80;;;;;;5130452;27;20184;-73
2024/01/16 09:53:45;;;;;;;4.40;2.77;;;3.80;98.20;;;;;;5130384;27;20427;-74
2024/01/16 09:56:20;;;;;;;2.80;2.37;;;4.30;97.20;;;;;;5110741;27;20245;-74
2024/01/16 09:58:49;;;;;;;4.37;2.10;;;4.60;94.90;;;;;;5130128;27;20214;-73
2024/01/16 10:01:15;;;;;;;9.30;4.37;;;4.90;93.60;;;;;;5111452;27;20430;-73
2024/01/16 10:03:44;;;;;;;11.10;7.17;;;5.60;95.80;;;;;;5111833;27;20422;-72
2024/01/16 10:06:11;;;;;;;10.17;6.63;;;6.40;95.70;;;;;;5094727;27;20510;-73
2024/01/16 10:08:37;;;;;;;8.63;5.33;;;7.40;94.50;;;;;;5130167;27;20822;-72
2024/01/16 10:11:03;;;;;;;11.53;7.70;;;8.20;90.90;;;;;;5130315;27;20494;-73
2024/01/16 10:13:30;;;;;;;13.77;8.60;;;8.40;90.10;;;;;;5094897;27;21068;-73
2024/01/16 10:15:55;;;;;;;20.10;10.40;;;9.00;88.90;;;;;;5130504;27;20410;-73
2024/01/16 10:18:25;;;;;;;14.13;9.70;;;8.60;84.00;;;;;;5111887;27;20812;-73
2024/01/16 10:20:52;;;;;;;15.20;8.73;;;7.80;85.00;;;;;;5111667;27;20660;-73
2024/01/16 10:23:28;;;;;;;11.40;8.40;;;7.70;86.70;;;;;;5130389;27;20415;-73
2024/01/16 10:26:11;;;;;;;11.77;7.43;;;7.90;87.50;;;;;;5130104;27;20466;-73
2024/01/16 10:28:39;;;;;;;11.90;8.17;;;8.30;85.70;;;;;;5111068;27;20444;-73
2024/01/16 10:31:06;;;;;;;13.20;8.43;;;8.80;84.20;;;;;;5111529;27;20418;-73
2024/01/16 10:33:32;;;;;;;32.90;15.43;;;9.40;84.40;;;;;;5111561;27;20506;-73
2024/01/16 10:36:18;;;;;;;17.97;8.07;;;10.10;81.80;;;;;;5129417;27;20501;-73
2024/01/16 10:38:45;;;;;;;8.23;5.83;;;11.50;77.60;;;;;;5129666;27;20537;-73
2024/01/16 10:41:17;;;;;;;9.23;5.57;;;12.50;75.30;;;;;;5110993;27;20465;-73
2024/01/16 10:43:46;;;;;;;10.53;5.20;;;13.40;70.10;;;;;;5110833;27;21260;-73
2024/01/16 10:46:14;;;;;;;10.30;6.43;;;13.40;64.60;;;;;;5129225;27;20460;-73
2024/01/16 10:48:58;;;;;;;13.77;6.03;;;13.30;64.40;;;;;;5129491;27;20490;-73
2024/01/16 10:51:25;;;;;;;9.13;5.83;;;13.50;62.50;;;;;;5129338;27;20466;-73
2024/01/16 10:53:58;;;;;;;10.40;6.00;;;13.20;61.10;;;;;;5110838;27;20992;-73
2024/01/16 10:56:25;;;;;;;8.27;5.27;;;13.20;60.20;;;;;;5129026;27;20414;-73
2024/01/16 10:59:16;;;;;;;12.00;7.00;;;12.10;59.00;;;;;;5129264;27;20971;-72
2024/01/16 11:01:44;;;;;;;13.43;6.67;;;11.10;59.20;;;;;;5128921;27;20417;-73
2024/01/16 11:04:12;;;;;;;13.03;6.67;;;10.80;60.90;;;;;;5110506;27;21063;-73
2024/01/16 11:06:39;;;;;;;13.23;8.17;;;10.60;61.30;;;;;;5128410;27;20464;-74
2024/01/16 11:09:06;;;;;;;17.00;12.60;;;10.70;63.00;;;;;;5129123;27;20446;-74
2024/01/16 11:11:34;;;;;;;10.47;6.20;;;11.30;64.00;;;;;;5128704;27;20830;-73
2024/01/16 11:14:02;;;;;;;13.00;7.33;;;11.70;62.80;;;;;;5128893;27;20412;-73
2024/01/16 11:16:31;;;;;;;20.37;8.60;;;12.50;62.00;;;;;;5128463;27;20445;-73
2024/01/16 11:18:57;;;;;;;13.03;9.53;;;12.50;59.50;;;;;;5110058;27;20474;-73
2024/01/16 11:21:24;;;;;;;12.90;9.07;;;11.90;58.10;;;;;;5128978;27;20910;-73
2024/01/16 11:23:49;;;;;;;7.70;4.27;;;11.80;60.60;;;;;;5129056;27;20274;-72
2024/01/16 11:26:33;;;;;;;8.30;4.97;;;11.10;58.60;;;;;;5110253;27;20570;-72
2024/01/16 11:29:27;;;;;;;7.07;4.80;;;10.50;60.00;;;;;;5113213;27;20197;-72
2024/01/16 11:31:54;;;;;;;5.93;4.07;;;10.30;60.90;;;;;;5129118;27;20418;-72
2024/01/16 11:34:49;;;;;;;7.63;4.70;;;10.30;61.60;;;;;;5129276;27;20485;-72
2024/01/16 11:37:21;;;;;;;6.97;4.10;;;10.80;62.00;;;;;;5128725;27;20472;-73
2024/01/16 11:39:47;;;;;;;9.30;4.57;;;10.90;59.90;;;;;;5128711;27;20410;-73
2024/01/16 11:42:26;;;;;;;5.90;3.77;;;10.60;61.00;;;;;;5128769;27;20428;-74
2024/01/16 11:44:54;;;;;;;6.03;2.93;;;10.60;60.90;;;;;;5128870;27;20285;-74
2024/01/16 11:47:20;;;;;;;5.53;3.20;;;10.80;60.40;;;;;;5110364;27;20450;-75
2024/01/16 11:49:47;;;;;;;4.60;3.67;;;11.10;58.90;;;;;;5128911;27;20443;-74
2024/01/16 11:52:13;;;;;;;4.10;2.60;;;11.30;59.00;;;;;;5110233;27;20446;-75
2024/01/16 11:54:42;;;;;;;4.13;2.40;;;11.50;58.00;;;;;;5128838;27;20922;-74
2024/01/16 11:57:23;;;;;;;5.53;2.80;;;11.50;56.10;;;;;;5110326;27;20414;-74
2024/01/16 12:00:12;;;;;;;5.30;3.00;;;11.10;56.70;;;;;;5129084;27;20409;-73
2024/01/16 12:02:55;;;;;;;4.37;2.60;;;10.50;57.50;;;;;;5128730;27;20933;-73
2024/01/16 12:05:21;;;;;;;3.80;3.40;;;9.90;58.20;;;;;;5128565;27;20459;-73
2024/01/16 12:07:52;;;;;;;8.80;3.40;;;9.60;59.40;;;;;;5128555;27;20435;-73
2024/01/16 12:10:19;;;;;;;4.13;2.70;;;9.20;59.00;;;;;;5109966;28;20419;-74
2024/01/16 12:12:46;;;;;;;5.30;3.07;;;9.00;59.10;;;;;;5093293;28;20865;-74
2024/01/16 12:15:16;;;;;;;3.17;2.30;;;8.70;60.60;;;;;;5128787;28;20424;-74
2024/01/16 12:18:17;;;;;;;5.20;2.90;;;8.30;59.80;;;;;;5128824;27;20430;-74
2024/01/16 12:20:43;;;;;;;4.47;3.30;;;8.10;61.80;;;;;;5115127;27;20426;-74
2024/01/16 12:23:09;;;;;;;7.73;3.50;;;7.70;62.10;;;;;;5114178;27;20414;-74
2024/01/16 12:25:36;;;;;;;3.83;2.80;;;7.10;61.60;;;;;;5132939;27;20469;-74
2024/01/16 12:28:06;;;;;;;6.57;3.77;;;6.50;62.50;;;;;;5097344;27;20204;-75
2024/01/16 12:30:34;;;;;;;6.37;2.90;;;6.30;66.60;;;;;;5114123;27;20789;-74
2024/01/16 12:33:10;;;;;;;3.83;2.70;;;5.90;66.00;;;;;;5132324;27;20411;-75
2024/01/16 12:35:36;;;;;;;5.87;2.70;;;5.70;67.90;;;;;;5096444;27;21148;-74
2024/01/16 12:38:02;;;;;;;7.80;2.73;;;5.50;68.90;;;;;;5113402;27;20461;-74
2024/01/16 12:40:29;;;;;;;6.90;3.30;;;5.20;70.00;;;;;;5113765;27;20415;-74
2024/01/16 12:42:55;;;;;;;7.20;3.50;;;5.10;70.90;;;;;;5113547;27;20415;-74
2024/01/16 12:45:22;;;;;;;4.70;3.03;;;4.80;70.80;;;;;;5132061;27;20491;-74
2024/01/16 12:47:57;;;;;;;5.57;3.07;;;4.40;70.50;;;;;;5113019;27;20445;-74